sensor_id;sensor_type;location;lat;lon;timestamp;temperature;humidity
57636;DHT22;43465;50.728;4.160;2022-08-11T00:01:49;24.00;60.00
57636;DHT22;43465;50.728;4.160;2022-08-11T00:04:17;24.00;60.00
57636;DHT22;43465;50.728;4.160;2022-08-11T00:06:44;24.00;60.70
57636;DHT22;43465;50.728;4.160;2022-08-11T00:09:19;23.90;61.70
57636;DHT22;43465;50.728;4.160;2022-08-11T00:11:50;23.80;61.00
57636;DHT22;43465;50.728;4.160;2022-08-11T00:14:31;23.80;61.80
57636;DHT22;43465;50.728;4.160;2022-08-11T00:17:03;23.80;61.10
57636;DHT22;43465;50.728;4.160;2022-08-11T00:19:32;23.80;61.30
57636;DHT22;43465;50.728;4.160;2022-08-11T00:21:59;23.80;61.60
57636;DHT22;43465;50.728;4.160;2022-08-11T00:24:32;23.70;61.20
57636;DHT22;43465;50.728;4.160;2022-08-11T00:26:58;23.70;61.70
57636;DHT22;43465;50.728;4.160;2022-08-11T00:29:24;23.60;61.80
57636;DHT22;43465;50.728;4.160;2022-08-11T00:31:52;23.50;62.00
57636;DHT22;43465;50.728;4.160;2022-08-11T00:34:22;23.60;62.50
57636;DHT22;43465;50.728;4.160;2022-08-11T00:37:09;23.50;62.20
57636;DHT22;43465;50.728;4.160;2022-08-11T00:39:48;23.50;62.00
57636;DHT22;43465;50.728;4.160;2022-08-11T00:42:44;23.50;62.10
57636;DHT22;43465;50.728;4.160;2022-08-11T00:45:30;23.40;62.90
57636;DHT22;43465;50.728;4.160;2022-08-11T00:48:27;23.40;63.50
57636;DHT22;43465;50.728;4.160;2022-08-11T00:54:35;23.40;63.20
57636;DHT22;43465;50.728;4.160;2022-08-11T01:12:04;22.90;64.30
57636;DHT22;43465;50.728;4.160;2022-08-11T01:34:22;22.60;65.60
57636;DHT22;43465;50.728;4.160;2022-08-11T01:38:07;22.60;65.60
57636;DHT22;43465;50.728;4.160;2022-08-11T01:46:21;22.40;66.80
57636;DHT22;43465;50.728;4.160;2022-08-11T01:49:11;22.30;66.70
57636;DHT22;43465;50.728;4.160;2022-08-11T01:51:45;22.30;67.10
57636;DHT22;43465;50.728;4.160;2022-08-11T02:00:15;22.20;67.80
57636;DHT22;43465;50.728;4.160;2022-08-11T02:10:49;22.10;68.10
57636;DHT22;43465;50.728;4.160;2022-08-11T02:19:04;22.00;68.70
57636;DHT22;43465;50.728;4.160;2022-08-11T02:25:26;22.00;68.90
57636;DHT22;43465;50.728;4.160;2022-08-11T02:28:22;22.00;68.30
57636;DHT22;43465;50.728;4.160;2022-08-11T02:31:06;22.00;68.30
57636;DHT22;43465;50.728;4.160;2022-08-11T02:33:59;21.90;68.70
57636;DHT22;43465;50.728;4.160;2022-08-11T02:36:40;22.00;70.30
57636;DHT22;43465;50.728;4.160;2022-08-11T02:39:09;21.90;69.30
57636;DHT22;43465;50.728;4.160;2022-08-11T02:42:03;21.90;69.30
57636;DHT22;43465;50.728;4.160;2022-08-11T02:50:30;21.80;69.60
57636;DHT22;43465;50.728;4.160;2022-08-11T02:53:12;21.80;69.70
57636;DHT22;43465;50.728;4.160;2022-08-11T02:55:56;21.80;69.80
57636;DHT22;43465;50.728;4.160;2022-08-11T03:11:16;21.60;70.50
57636;DHT22;43465;50.728;4.160;2022-08-11T03:14:28;21.60;70.70
57636;DHT22;43465;50.728;4.160;2022-08-11T03:20:37;21.40;71.20
57636;DHT22;43465;50.728;4.160;2022-08-11T03:23:34;21.50;71.50
57636;DHT22;43465;50.728;4.160;2022-08-11T03:26:31;21.50;71.50
57636;DHT22;43465;50.728;4.160;2022-08-11T03:31:50;21.40;72.00
57636;DHT22;43465;50.728;4.160;2022-08-11T03:34:23;21.30;72.30
57636;DHT22;43465;50.728;4.160;2022-08-11T04:04:31;20.90;73.00
57636;DHT22;43465;50.728;4.160;2022-08-11T04:07:20;20.90;73.20
57636;DHT22;43465;50.728;4.160;2022-08-11T04:21:35;20.80;73.70
57636;DHT22;43465;50.728;4.160;2022-08-11T04:24:22;20.90;73.80
57636;DHT22;43465;50.728;4.160;2022-08-11T04:29:55;20.90;74.10
57636;DHT22;43465;50.728;4.160;2022-08-11T04:40:55;20.80;74.00
57636;DHT22;43465;50.728;4.160;2022-08-11T04:46:32;20.70;74.10
57636;DHT22;43465;50.728;4.160;2022-08-11T04:58:48;20.70;75.00
57636;DHT22;43465;50.728;4.160;2022-08-11T05:10:27;20.60;75.70
57636;DHT22;43465;50.728;4.160;2022-08-11T05:13:04;20.60;76.10
57636;DHT22;43465;50.728;4.160;2022-08-11T05:15:54;20.60;76.00
57636;DHT22;43465;50.728;4.160;2022-08-11T05:18:50;20.60;76.10
57636;DHT22;43465;50.728;4.160;2022-08-11T05:21:35;20.70;76.30
57636;DHT22;43465;50.728;4.160;2022-08-11T05:24:25;20.70;76.20
57636;DHT22;43465;50.728;4.160;2022-08-11T05:27:14;20.80;76.30
57636;DHT22;43465;50.728;4.160;2022-08-11T05:30:03;20.90;76.10
57636;DHT22;43465;50.728;4.160;2022-08-11T05:35:49;21.20;75.30
57636;DHT22;43465;50.728;4.160;2022-08-11T05:38:20;21.40;75.00
57636;DHT22;43465;50.728;4.160;2022-08-11T05:41:06;21.50;74.30
57636;DHT22;43465;50.728;4.160;2022-08-11T05:43:51;21.60;74.50
57636;DHT22;43465;50.728;4.160;2022-08-11T05:46:40;21.70;73.70
57636;DHT22;43465;50.728;4.160;2022-08-11T05:49:29;21.60;73.70
57636;DHT22;43465;50.728;4.160;2022-08-11T05:52:16;21.70;73.90
57636;DHT22;43465;50.728;4.160;2022-08-11T05:55:04;21.60;74.10
57636;DHT22;43465;50.728;4.160;2022-08-11T05:57:58;21.60;74.20
57636;DHT22;43465;50.728;4.160;2022-08-11T06:00:25;21.70;74.30
57636;DHT22;43465;50.728;4.160;2022-08-11T06:02:54;21.80;74.50
57636;DHT22;43465;50.728;4.160;2022-08-11T06:05:21;21.90;74.70
57636;DHT22;43465;50.728;4.160;2022-08-11T06:07:48;21.90;74.40
57636;DHT22;43465;50.728;4.160;2022-08-11T06:10:24;22.00;74.30
57636;DHT22;43465;50.728;4.160;2022-08-11T06:12:52;22.10;74.10
57636;DHT22;43465;50.728;4.160;2022-08-11T06:15:20;22.10;74.00
57636;DHT22;43465;50.728;4.160;2022-08-11T06:17:47;22.20;73.90
57636;DHT22;43465;50.728;4.160;2022-08-11T06:20:17;22.30;73.30
57636;DHT22;43465;50.728;4.160;2022-08-11T06:22:54;22.40;73.40
57636;DHT22;43465;50.728;4.160;2022-08-11T06:25:21;22.50;73.60
57636;DHT22;43465;50.728;4.160;2022-08-11T06:27:53;22.50;73.20
57636;DHT22;43465;50.728;4.160;2022-08-11T06:30:34;22.50;72.90
57636;DHT22;43465;50.728;4.160;2022-08-11T06:33:07;22.60;72.70
57636;DHT22;43465;50.728;4.160;2022-08-11T06:35:59;22.60;73.40
57636;DHT22;43465;50.728;4.160;2022-08-11T06:41:32;22.80;72.40
57636;DHT22;43465;50.728;4.160;2022-08-11T06:46:39;23.00;71.60
57636;DHT22;43465;50.728;4.160;2022-08-11T06:49:14;23.10;71.50
57636;DHT22;43465;50.728;4.160;2022-08-11T06:54:35;23.30;70.90
57636;DHT22;43465;50.728;4.160;2022-08-11T06:57:06;23.40;70.70
57636;DHT22;43465;50.728;4.160;2022-08-11T06:59:52;23.50;70.60
57636;DHT22;43465;50.728;4.160;2022-08-11T07:02:51;23.60;69.50
57636;DHT22;43465;50.728;4.160;2022-08-11T07:05:26;23.70;69.10
57636;DHT22;43465;50.728;4.160;2022-08-11T07:08:24;23.80;68.80
57636;DHT22;43465;50.728;4.160;2022-08-11T07:14:21;24.10;67.90
57636;DHT22;43465;50.728;4.160;2022-08-11T07:17:16;24.30;66.70
57636;DHT22;43465;50.728;4.160;2022-08-11T07:19:50;24.40;67.20
57636;DHT22;43465;50.728;4.160;2022-08-11T07:22:36;24.40;66.80
57636;DHT22;43465;50.728;4.160;2022-08-11T07:25:22;24.50;64.90
57636;DHT22;43465;50.728;4.160;2022-08-11T07:28:16;24.70;64.90
57636;DHT22;43465;50.728;4.160;2022-08-11T07:31:05;24.70;64.60
57636;DHT22;43465;50.728;4.160;2022-08-11T07:33:50;24.90;64.80
57636;DHT22;43465;50.728;4.160;2022-08-11T07:36:17;25.00;63.40
57636;DHT22;43465;50.728;4.160;2022-08-11T07:38:46;25.10;62.70
57636;DHT22;43465;50.728;4.160;2022-08-11T07:41:18;25.20;62.60
57636;DHT22;43465;50.728;4.160;2022-08-11T07:43:47;25.30;62.30
57636;DHT22;43465;50.728;4.160;2022-08-11T07:46:14;25.30;62.70
57636;DHT22;43465;50.728;4.160;2022-08-11T07:49:02;25.30;61.40
57636;DHT22;43465;50.728;4.160;2022-08-11T07:51:46;25.50;61.60
57636;DHT22;43465;50.728;4.160;2022-08-11T07:54:32;25.60;61.00
57636;DHT22;43465;50.728;4.160;2022-08-11T07:56:58;25.70;59.80
57636;DHT22;43465;50.728;4.160;2022-08-11T07:59:24;25.80;59.20
57636;DHT22;43465;50.728;4.160;2022-08-11T08:02:11;26.00;59.80
57636;DHT22;43465;50.728;4.160;2022-08-11T08:04:57;26.10;60.00
57636;DHT22;43465;50.728;4.160;2022-08-11T08:07:42;26.10;59.90
57636;DHT22;43465;50.728;4.160;2022-08-11T08:10:28;26.20;59.90
57636;DHT22;43465;50.728;4.160;2022-08-11T08:13:14;26.30;59.50
57636;DHT22;43465;50.728;4.160;2022-08-11T08:15:59;26.40;59.00
57636;DHT22;43465;50.728;4.160;2022-08-11T08:18:44;26.50;58.60
57636;DHT22;43465;50.728;4.160;2022-08-11T08:21:10;26.60;58.20
57636;DHT22;43465;50.728;4.160;2022-08-11T08:23:38;26.70;58.50
57636;DHT22;43465;50.728;4.160;2022-08-11T08:26:09;26.70;57.80
57636;DHT22;43465;50.728;4.160;2022-08-11T08:29:12;26.80;58.10
57636;DHT22;43465;50.728;4.160;2022-08-11T08:31:56;26.90;57.20
57636;DHT22;43465;50.728;4.160;2022-08-11T08:34:23;27.00;56.00
57636;DHT22;43465;50.728;4.160;2022-08-11T08:36:50;27.10;55.70
57636;DHT22;43465;50.728;4.160;2022-08-11T08:39:20;27.20;55.90
57636;DHT22;43465;50.728;4.160;2022-08-11T08:41:51;27.30;54.70
57636;DHT22;43465;50.728;4.160;2022-08-11T08:44:19;27.30;54.80
57636;DHT22;43465;50.728;4.160;2022-08-11T08:46:49;27.40;55.20
57636;DHT22;43465;50.728;4.160;2022-08-11T08:49:21;27.60;54.60
57636;DHT22;43465;50.728;4.160;2022-08-11T08:51:56;27.70;53.70
57636;DHT22;43465;50.728;4.160;2022-08-11T08:54:37;27.80;54.10
57636;DHT22;43465;50.728;4.160;2022-08-11T08:57:05;27.90;54.60
57636;DHT22;43465;50.728;4.160;2022-08-11T08:59:35;28.00;54.70
57636;DHT22;43465;50.728;4.160;2022-08-11T09:02:05;28.10;53.80
57636;DHT22;43465;50.728;4.160;2022-08-11T09:04:33;28.20;53.60
57636;DHT22;43465;50.728;4.160;2022-08-11T09:07:07;28.30;54.20
57636;DHT22;43465;50.728;4.160;2022-08-11T09:09:34;28.40;53.20
57636;DHT22;43465;50.728;4.160;2022-08-11T09:12:01;28.40;53.60
57636;DHT22;43465;50.728;4.160;2022-08-11T09:14:35;28.60;52.20
57636;DHT22;43465;50.728;4.160;2022-08-11T09:17:23;28.60;52.80
57636;DHT22;43465;50.728;4.160;2022-08-11T09:20:13;28.60;51.70
57636;DHT22;43465;50.728;4.160;2022-08-11T09:22:40;28.70;51.60
57636;DHT22;43465;50.728;4.160;2022-08-11T09:25:27;28.80;51.10
57636;DHT22;43465;50.728;4.160;2022-08-11T09:28:15;28.90;50.10
57636;DHT22;43465;50.728;4.160;2022-08-11T09:30:42;28.90;51.60
57636;DHT22;43465;50.728;4.160;2022-08-11T09:33:11;28.90;49.90
57636;DHT22;43465;50.728;4.160;2022-08-11T09:35:38;28.90;50.10
57636;DHT22;43465;50.728;4.160;2022-08-11T09:38:10;28.90;51.50
57636;DHT22;43465;50.728;4.160;2022-08-11T09:40:54;29.10;49.80
57636;DHT22;43465;50.728;4.160;2022-08-11T09:43:20;29.20;50.70
57636;DHT22;43465;50.728;4.160;2022-08-11T09:46:06;29.10;50.90
57636;DHT22;43465;50.728;4.160;2022-08-11T09:48:51;29.20;49.50
57636;DHT22;43465;50.728;4.160;2022-08-11T09:51:20;29.30;49.40
57636;DHT22;43465;50.728;4.160;2022-08-11T09:53:48;29.40;48.10
57636;DHT22;43465;50.728;4.160;2022-08-11T09:56:16;29.40;49.10
57636;DHT22;43465;50.728;4.160;2022-08-11T09:59:01;29.40;48.10
57636;DHT22;43465;50.728;4.160;2022-08-11T10:01:48;29.50;49.50
57636;DHT22;43465;50.728;4.160;2022-08-11T10:04:21;29.60;48.80
57636;DHT22;43465;50.728;4.160;2022-08-11T10:06:50;29.70;48.30
57636;DHT22;43465;50.728;4.160;2022-08-11T10:12:25;29.90;48.10
57636;DHT22;43465;50.728;4.160;2022-08-11T10:14:54;30.00;47.70
57636;DHT22;43465;50.728;4.160;2022-08-11T10:17:42;30.00;48.00
57636;DHT22;43465;50.728;4.160;2022-08-11T10:20:29;30.20;45.50
57636;DHT22;43465;50.728;4.160;2022-08-11T10:22:58;30.30;46.40
57636;DHT22;43465;50.728;4.160;2022-08-11T10:25:42;30.40;46.40
57636;DHT22;43465;50.728;4.160;2022-08-11T10:28:27;30.50;46.50
57636;DHT22;43465;50.728;4.160;2022-08-11T10:30:54;30.70;45.60
57636;DHT22;43465;50.728;4.160;2022-08-11T10:33:39;30.70;44.30
57636;DHT22;43465;50.728;4.160;2022-08-11T10:36:26;30.70;44.90
57636;DHT22;43465;50.728;4.160;2022-08-11T10:38:54;30.90;45.40
57636;DHT22;43465;50.728;4.160;2022-08-11T10:41:20;30.90;44.90
57636;DHT22;43465;50.728;4.160;2022-08-11T10:44:08;31.00;43.00
57636;DHT22;43465;50.728;4.160;2022-08-11T10:46:35;31.10;43.90
57636;DHT22;43465;50.728;4.160;2022-08-11T10:49:22;31.10;44.00
57636;DHT22;43465;50.728;4.160;2022-08-11T10:51:48;31.10;42.80
57636;DHT22;43465;50.728;4.160;2022-08-11T10:54:33;31.10;43.10
57636;DHT22;43465;50.728;4.160;2022-08-11T10:57:19;31.10;43.80
57636;DHT22;43465;50.728;4.160;2022-08-11T11:00:04;31.20;43.50
57636;DHT22;43465;50.728;4.160;2022-08-11T11:02:31;31.40;44.00
57636;DHT22;43465;50.728;4.160;2022-08-11T11:07:55;31.60;44.10
57636;DHT22;43465;50.728;4.160;2022-08-11T11:10:24;31.70;43.30
57636;DHT22;43465;50.728;4.160;2022-08-11T11:12:53;31.80;42.90
57636;DHT22;43465;50.728;4.160;2022-08-11T11:15:41;31.80;42.50
57636;DHT22;43465;50.728;4.160;2022-08-11T11:18:29;31.80;41.50
57636;DHT22;43465;50.728;4.160;2022-08-11T11:21:08;31.80;42.10
57636;DHT22;43465;50.728;4.160;2022-08-11T11:23:42;31.90;41.60
57636;DHT22;43465;50.728;4.160;2022-08-11T11:26:34;32.00;41.80
57636;DHT22;43465;50.728;4.160;2022-08-11T11:36:57;32.40;41.00
57636;DHT22;43465;50.728;4.160;2022-08-11T11:39:27;32.40;41.50
57636;DHT22;43465;50.728;4.160;2022-08-11T11:41:57;32.30;41.00
57636;DHT22;43465;50.728;4.160;2022-08-11T11:44:24;32.30;41.20
57636;DHT22;43465;50.728;4.160;2022-08-11T11:46:51;32.30;41.20
57636;DHT22;43465;50.728;4.160;2022-08-11T11:49:19;32.40;41.40
57636;DHT22;43465;50.728;4.160;2022-08-11T11:51:48;32.40;40.70
57636;DHT22;43465;50.728;4.160;2022-08-11T11:54:15;32.40;40.90
57636;DHT22;43465;50.728;4.160;2022-08-11T11:56:42;32.50;40.40
57636;DHT22;43465;50.728;4.160;2022-08-11T11:59:11;32.50;39.90
57636;DHT22;43465;50.728;4.160;2022-08-11T12:01:56;32.50;41.20
57636;DHT22;43465;50.728;4.160;2022-08-11T12:04:22;32.50;40.70
57636;DHT22;43465;50.728;4.160;2022-08-11T12:06:48;32.60;39.60
57636;DHT22;43465;50.728;4.160;2022-08-11T12:09:14;32.60;39.80
57636;DHT22;43465;50.728;4.160;2022-08-11T12:11:43;32.60;39.40
57636;DHT22;43465;50.728;4.160;2022-08-11T12:14:28;32.60;39.50
57636;DHT22;43465;50.728;4.160;2022-08-11T12:16:55;32.60;41.00
57636;DHT22;43465;50.728;4.160;2022-08-11T12:19:26;32.60;41.70
57636;DHT22;43465;50.728;4.160;2022-08-11T12:21:55;32.70;40.70
57636;DHT22;43465;50.728;4.160;2022-08-11T12:24:41;32.80;40.50
57636;DHT22;43465;50.728;4.160;2022-08-11T12:27:26;32.80;39.40
57636;DHT22;43465;50.728;4.160;2022-08-11T12:30:00;32.80;41.30
57636;DHT22;43465;50.728;4.160;2022-08-11T12:32:30;32.80;41.10
57636;DHT22;43465;50.728;4.160;2022-08-11T12:34:56;32.80;38.70
57636;DHT22;43465;50.728;4.160;2022-08-11T12:37:47;32.80;40.80
57636;DHT22;43465;50.728;4.160;2022-08-11T12:40:17;32.80;40.10
57636;DHT22;43465;50.728;4.160;2022-08-11T12:43:03;32.80;39.40
57636;DHT22;43465;50.728;4.160;2022-08-11T12:45:53;32.80;38.70
57636;DHT22;43465;50.728;4.160;2022-08-11T12:48:23;32.70;39.80
57636;DHT22;43465;50.728;4.160;2022-08-11T12:51:11;32.70;40.40
57636;DHT22;43465;50.728;4.160;2022-08-11T12:54:14;32.80;40.60
57636;DHT22;43465;50.728;4.160;2022-08-11T12:56:48;32.80;40.20
57636;DHT22;43465;50.728;4.160;2022-08-11T12:59:34;32.80;41.10
57636;DHT22;43465;50.728;4.160;2022-08-11T13:02:20;32.90;40.10
57636;DHT22;43465;50.728;4.160;2022-08-11T13:05:07;32.90;40.20
57636;DHT22;43465;50.728;4.160;2022-08-11T13:07:33;33.00;41.20
57636;DHT22;43465;50.728;4.160;2022-08-11T13:10:04;33.10;39.10
57636;DHT22;43465;50.728;4.160;2022-08-11T13:12:31;33.10;39.90
57636;DHT22;43465;50.728;4.160;2022-08-11T13:15:18;33.10;39.80
57636;DHT22;43465;50.728;4.160;2022-08-11T13:17:45;33.20;39.80
57636;DHT22;43465;50.728;4.160;2022-08-11T13:20:15;33.40;39.30
57636;DHT22;43465;50.728;4.160;2022-08-11T13:22:47;33.30;39.10
57636;DHT22;43465;50.728;4.160;2022-08-11T13:25:16;33.40;37.70
57636;DHT22;43465;50.728;4.160;2022-08-11T13:27:44;33.20;39.30
57636;DHT22;43465;50.728;4.160;2022-08-11T13:30:12;33.00;39.90
57636;DHT22;43465;50.728;4.160;2022-08-11T13:32:58;33.00;40.20
57636;DHT22;43465;50.728;4.160;2022-08-11T13:35:25;33.10;41.20
57636;DHT22;43465;50.728;4.160;2022-08-11T13:37:52;33.10;39.80
57636;DHT22;43465;50.728;4.160;2022-08-11T13:40:20;33.20;40.20
57636;DHT22;43465;50.728;4.160;2022-08-11T13:42:47;33.30;39.70
57636;DHT22;43465;50.728;4.160;2022-08-11T13:45:13;33.40;39.50
57636;DHT22;43465;50.728;4.160;2022-08-11T13:47:39;33.40;39.00
57636;DHT22;43465;50.728;4.160;2022-08-11T13:50:07;33.40;37.80
57636;DHT22;43465;50.728;4.160;2022-08-11T13:52:34;33.10;38.30
57636;DHT22;43465;50.728;4.160;2022-08-11T13:55:01;32.90;38.60
57636;DHT22;43465;50.728;4.160;2022-08-11T13:57:30;32.70;39.60
57636;DHT22;43465;50.728;4.160;2022-08-11T13:59:58;32.60;39.80
57636;DHT22;43465;50.728;4.160;2022-08-11T14:02:37;32.60;39.00
57636;DHT22;43465;50.728;4.160;2022-08-11T14:05:05;32.60;39.50
57636;DHT22;43465;50.728;4.160;2022-08-11T14:07:38;32.80;39.80
57636;DHT22;43465;50.728;4.160;2022-08-11T14:10:06;32.90;38.60
57636;DHT22;43465;50.728;4.160;2022-08-11T14:12:34;33.10;38.80
57636;DHT22;43465;50.728;4.160;2022-08-11T14:15:26;33.40;40.00
57636;DHT22;43465;50.728;4.160;2022-08-11T14:18:04;34.10;37.30
57636;DHT22;43465;50.728;4.160;2022-08-11T14:20:33;35.10;36.70
57636;DHT22;43465;50.728;4.160;2022-08-11T14:23:34;35.90;34.40
57636;DHT22;43465;50.728;4.160;2022-08-11T14:26:02;36.80;34.60
57636;DHT22;43465;50.728;4.160;2022-08-11T14:28:46;37.60;33.80
57636;DHT22;43465;50.728;4.160;2022-08-11T14:31:14;38.40;33.40
57636;DHT22;43465;50.728;4.160;2022-08-11T14:33:40;39.30;31.70
57636;DHT22;43465;50.728;4.160;2022-08-11T14:36:08;40.10;30.40
57636;DHT22;43465;50.728;4.160;2022-08-11T14:38:36;40.90;30.70
57636;DHT22;43465;50.728;4.160;2022-08-11T14:41:03;41.20;30.00
57636;DHT22;43465;50.728;4.160;2022-08-11T14:43:49;41.40;29.60
57636;DHT22;43465;50.728;4.160;2022-08-11T14:46:33;41.50;29.80
57636;DHT22;43465;50.728;4.160;2022-08-11T14:49:19;41.70;29.60
57636;DHT22;43465;50.728;4.160;2022-08-11T14:51:47;42.10;29.20
57636;DHT22;43465;50.728;4.160;2022-08-11T14:54:14;42.10;29.20
57636;DHT22;43465;50.728;4.160;2022-08-11T14:56:59;42.40;29.00
57636;DHT22;43465;50.728;4.160;2022-08-11T14:59:25;42.90;28.90
57636;DHT22;43465;50.728;4.160;2022-08-11T15:01:50;43.00;28.10
57636;DHT22;43465;50.728;4.160;2022-08-11T15:04:35;43.30;28.50
57636;DHT22;43465;50.728;4.160;2022-08-11T15:07:02;43.30;27.90
57636;DHT22;43465;50.728;4.160;2022-08-11T15:09:28;43.80;28.10
57636;DHT22;43465;50.728;4.160;2022-08-11T15:11:54;44.10;27.60
57636;DHT22;43465;50.728;4.160;2022-08-11T15:14:43;44.00;27.40
57636;DHT22;43465;50.728;4.160;2022-08-11T15:17:29;43.00;28.00
57636;DHT22;43465;50.728;4.160;2022-08-11T15:20:00;41.70;28.20
57636;DHT22;43465;50.728;4.160;2022-08-11T15:22:45;40.50;28.90
57636;DHT22;43465;50.728;4.160;2022-08-11T15:25:30;39.30;30.00
57636;DHT22;43465;50.728;4.160;2022-08-11T15:27:59;38.40;31.40
57636;DHT22;43465;50.728;4.160;2022-08-11T15:30:45;37.70;32.30
57636;DHT22;43465;50.728;4.160;2022-08-11T15:33:31;37.10;31.80
57636;DHT22;43465;50.728;4.160;2022-08-11T15:36:16;36.50;32.90
57636;DHT22;43465;50.728;4.160;2022-08-11T15:39:05;36.10;34.20
57636;DHT22;43465;50.728;4.160;2022-08-11T15:41:40;35.60;34.30
57636;DHT22;43465;50.728;4.160;2022-08-11T15:44:29;35.40;34.60
57636;DHT22;43465;50.728;4.160;2022-08-11T15:47:14;35.20;35.00
57636;DHT22;43465;50.728;4.160;2022-08-11T15:49:43;34.90;34.50
57636;DHT22;43465;50.728;4.160;2022-08-11T15:52:14;34.70;35.60
57636;DHT22;43465;50.728;4.160;2022-08-11T15:54:43;34.50;35.30
57636;DHT22;43465;50.728;4.160;2022-08-11T15:57:11;34.40;35.60
57636;DHT22;43465;50.728;4.160;2022-08-11T16:00:03;34.20;34.40
57636;DHT22;43465;50.728;4.160;2022-08-11T16:02:50;34.10;35.70
57636;DHT22;43465;50.728;4.160;2022-08-11T16:05:35;34.00;34.80
57636;DHT22;43465;50.728;4.160;2022-08-11T16:08:03;33.90;34.80
57636;DHT22;43465;50.728;4.160;2022-08-11T16:10:29;33.70;35.80
57636;DHT22;43465;50.728;4.160;2022-08-11T16:12:59;33.70;35.30
57636;DHT22;43465;50.728;4.160;2022-08-11T16:15:41;33.70;36.20
57636;DHT22;43465;50.728;4.160;2022-08-11T16:18:34;33.50;35.70
57636;DHT22;43465;50.728;4.160;2022-08-11T16:21:09;33.40;36.40
57636;DHT22;43465;50.728;4.160;2022-08-11T16:23:36;33.40;36.00
57636;DHT22;43465;50.728;4.160;2022-08-11T16:26:05;33.30;35.80
57636;DHT22;43465;50.728;4.160;2022-08-11T16:28:33;33.30;35.70
57636;DHT22;43465;50.728;4.160;2022-08-11T16:31:00;33.40;35.80
57636;DHT22;43465;50.728;4.160;2022-08-11T16:33:27;33.40;36.00
57636;DHT22;43465;50.728;4.160;2022-08-11T16:35:55;33.40;35.80
57636;DHT22;43465;50.728;4.160;2022-08-11T16:38:40;33.50;36.60
57636;DHT22;43465;50.728;4.160;2022-08-11T16:41:12;34.00;35.30
57636;DHT22;43465;50.728;4.160;2022-08-11T16:43:44;34.90;34.20
57636;DHT22;43465;50.728;4.160;2022-08-11T16:46:49;35.20;34.30
57636;DHT22;43465;50.728;4.160;2022-08-11T16:49:31;35.00;35.20
57636;DHT22;43465;50.728;4.160;2022-08-11T16:51:58;34.60;34.90
57636;DHT22;43465;50.728;4.160;2022-08-11T16:54:29;34.40;35.40
57636;DHT22;43465;50.728;4.160;2022-08-11T16:56:55;34.00;35.20
57636;DHT22;43465;50.728;4.160;2022-08-11T16:59:41;33.80;35.30
57636;DHT22;43465;50.728;4.160;2022-08-11T17:02:14;33.50;36.00
57636;DHT22;43465;50.728;4.160;2022-08-11T17:05:08;33.40;35.90
57636;DHT22;43465;50.728;4.160;2022-08-11T17:07:55;33.20;36.10
57636;DHT22;43465;50.728;4.160;2022-08-11T17:11:02;33.10;36.30
57636;DHT22;43465;50.728;4.160;2022-08-11T17:14:04;32.90;35.00
57636;DHT22;43465;50.728;4.160;2022-08-11T17:16:35;32.80;34.30
57636;DHT22;43465;50.728;4.160;2022-08-11T17:19:07;32.70;34.00
57636;DHT22;43465;50.728;4.160;2022-08-11T17:21:37;32.40;33.50
57636;DHT22;43465;50.728;4.160;2022-08-11T17:24:23;32.30;33.50
57636;DHT22;43465;50.728;4.160;2022-08-11T17:26:53;32.30;33.90
57636;DHT22;43465;50.728;4.160;2022-08-11T17:29:41;32.20;34.40
57636;DHT22;43465;50.728;4.160;2022-08-11T17:32:14;32.10;33.70
57636;DHT22;43465;50.728;4.160;2022-08-11T17:35:08;32.10;34.00
57636;DHT22;43465;50.728;4.160;2022-08-11T17:40:36;32.10;34.60
57636;DHT22;43465;50.728;4.160;2022-08-11T17:43:06;32.00;34.60
57636;DHT22;43465;50.728;4.160;2022-08-11T17:45:52;32.00;34.60
57636;DHT22;43465;50.728;4.160;2022-08-11T17:48:41;31.90;34.70
57636;DHT22;43465;50.728;4.160;2022-08-11T17:51:13;31.80;35.30
57636;DHT22;43465;50.728;4.160;2022-08-11T17:54:02;31.80;35.40
57636;DHT22;43465;50.728;4.160;2022-08-11T17:56:48;31.80;35.80
57636;DHT22;43465;50.728;4.160;2022-08-11T17:59:34;31.70;36.20
57636;DHT22;43465;50.728;4.160;2022-08-11T18:02:41;31.60;36.20
57636;DHT22;43465;50.728;4.160;2022-08-11T18:05:32;31.60;36.70
57636;DHT22;43465;50.728;4.160;2022-08-11T18:08:02;31.50;37.20
57636;DHT22;43465;50.728;4.160;2022-08-11T18:10:49;31.50;37.00
57636;DHT22;43465;50.728;4.160;2022-08-11T18:13:36;31.40;37.40
57636;DHT22;43465;50.728;4.160;2022-08-11T18:16:20;31.30;37.00
57636;DHT22;43465;50.728;4.160;2022-08-11T18:19:05;31.20;37.60
57636;DHT22;43465;50.728;4.160;2022-08-11T18:21:55;31.10;37.90
57636;DHT22;43465;50.728;4.160;2022-08-11T18:24:44;31.10;38.40
57636;DHT22;43465;50.728;4.160;2022-08-11T18:27:32;31.00;38.90
57636;DHT22;43465;50.728;4.160;2022-08-11T18:30:17;31.00;38.60
57636;DHT22;43465;50.728;4.160;2022-08-11T18:33:03;30.90;38.40
57636;DHT22;43465;50.728;4.160;2022-08-11T18:35:53;30.90;38.90
57636;DHT22;43465;50.728;4.160;2022-08-11T18:38:41;30.80;39.20
57636;DHT22;43465;50.728;4.160;2022-08-11T18:41:28;30.70;39.00
57636;DHT22;43465;50.728;4.160;2022-08-11T18:44:16;30.60;39.40
57636;DHT22;43465;50.728;4.160;2022-08-11T18:47:07;30.60;40.60
57636;DHT22;43465;50.728;4.160;2022-08-11T18:49:53;30.50;40.70
57636;DHT22;43465;50.728;4.160;2022-08-11T18:52:40;30.40;39.80
57636;DHT22;43465;50.728;4.160;2022-08-11T18:55:28;30.30;39.70
57636;DHT22;43465;50.728;4.160;2022-08-11T18:58:16;30.20;40.90
57636;DHT22;43465;50.728;4.160;2022-08-11T19:01:05;30.20;41.30
57636;DHT22;43465;50.728;4.160;2022-08-11T19:03:52;30.20;41.40
57636;DHT22;43465;50.728;4.160;2022-08-11T19:06:41;30.00;40.90
57636;DHT22;43465;50.728;4.160;2022-08-11T19:09:27;30.00;42.10
57636;DHT22;43465;50.728;4.160;2022-08-11T19:12:13;29.90;41.60
57636;DHT22;43465;50.728;4.160;2022-08-11T19:14:59;29.70;42.10
57636;DHT22;43465;50.728;4.160;2022-08-11T19:17:44;29.60;42.10
57636;DHT22;43465;50.728;4.160;2022-08-11T19:20:30;29.50;42.00
57636;DHT22;43465;50.728;4.160;2022-08-11T19:23:19;29.40;42.70
57636;DHT22;43465;50.728;4.160;2022-08-11T19:26:04;29.30;43.20
57636;DHT22;43465;50.728;4.160;2022-08-11T19:28:49;29.20;43.00
57636;DHT22;43465;50.728;4.160;2022-08-11T19:31:36;29.10;43.20
57636;DHT22;43465;50.728;4.160;2022-08-11T19:34:22;29.00;43.50
57636;DHT22;43465;50.728;4.160;2022-08-11T19:37:09;29.00;43.10
57636;DHT22;43465;50.728;4.160;2022-08-11T19:40:05;28.90;43.30
57636;DHT22;43465;50.728;4.160;2022-08-11T19:42:50;28.70;43.70
57636;DHT22;43465;50.728;4.160;2022-08-11T19:45:35;28.60;43.70
57636;DHT22;43465;50.728;4.160;2022-08-11T19:48:21;28.50;45.20
57636;DHT22;43465;50.728;4.160;2022-08-11T19:51:08;28.40;45.90
57636;DHT22;43465;50.728;4.160;2022-08-11T19:53:53;28.40;45.10
57636;DHT22;43465;50.728;4.160;2022-08-11T19:56:38;28.30;45.00